createdAt,value
2022-09-26T00:03:27.875Z,46.83
2022-09-26T00:06:13.353Z,49.13
2022-09-26T00:09:05.515Z,52.22
2022-09-26T00:14:37.208Z,55.55
2022-09-26T00:20:27.801Z,53.42
2022-09-26T00:23:09.445Z,52.08
2022-09-26T00:25:44.115Z,52.72
2022-09-26T00:28:32.850Z,51.70
2022-09-26T00:34:42.826Z,48.25
2022-09-26T00:37:33.038Z,45.63
2022-09-26T00:40:29.088Z,46.63
2022-09-26T00:44:03.358Z,49.53
2022-09-26T00:50:26.491Z,48.33
2022-09-26T00:56:39.777Z,52.55
2022-09-26T00:59:38.196Z,47.20
2022-09-26T01:02:19.963Z,48.50
2022-09-26T01:05:06.161Z,48.83
2022-09-26T01:08:02.572Z,48.47
2022-09-26T01:11:06.514Z,47.15
2022-09-26T01:13:57.696Z,44.60
2022-09-26T01:16:44.822Z,45.88
2022-09-26T01:19:43.960Z,42.15
2022-09-26T01:23:04.658Z,43.05
2022-09-26T01:28:58.675Z,45.97
2022-09-26T01:32:36.620Z,46.08
2022-09-26T01:35:44.363Z,46.97
2022-09-26T01:39:16.070Z,47.75
2022-09-26T01:42:22.054Z,52.33
2022-09-26T01:48:08.965Z,64.85
2022-09-26T01:51:04.000Z,52.15
2022-09-26T01:53:44.158Z,47.28
2022-09-26T01:56:18.646Z,52.63
2022-09-26T01:59:15.858Z,50.42
2022-09-26T02:02:06.633Z,52.33
2022-09-26T02:05:06.044Z,46.15
2022-09-26T02:08:11.248Z,45.58
2022-09-26T02:11:30.322Z,48.92
2022-09-26T02:16:02.075Z,42.85
2022-09-26T02:17:48.550Z,44.30
2022-09-26T02:21:38.011Z,49.97
2022-09-26T02:24:07.387Z,49.05
2022-09-26T02:26:36.800Z,47.33
2022-09-26T02:32:24.561Z,51.42
2022-09-26T02:35:58.582Z,54.30
2022-09-26T02:38:32.238Z,59.20
2022-09-26T02:43:11.353Z,49.35
2022-09-26T02:46:25.169Z,47.22
2022-09-26T02:49:36.922Z,43.97
2022-09-26T02:53:00.159Z,37.05
2022-09-26T02:56:05.700Z,36.97
2022-09-26T03:02:36.284Z,31.95
2022-09-26T03:05:44.028Z,36.15
2022-09-26T03:08:22.883Z,40.17
2022-09-26T03:12:10.366Z,34.95
2022-09-26T03:14:11.087Z,32.42
2022-09-26T03:16:48.924Z,27.17
2022-09-26T03:19:50.055Z,28.67
2022-09-26T03:22:31.342Z,32.00
2022-09-26T03:25:08.486Z,34.28
2022-09-26T03:30:43.544Z,37.20
2022-09-26T03:33:16.252Z,36.75
2022-09-26T03:35:54.096Z,38.95
2022-09-26T03:38:26.303Z,38.60
2022-09-26T03:41:06.968Z,37.95
2022-09-26T03:43:46.196Z,36.58
2022-09-26T03:46:38.955Z,42.78
2022-09-26T03:49:06.829Z,51.22
2022-09-26T03:51:53.417Z,38.65
2022-09-26T03:54:35.767Z,39.08
2022-09-26T03:57:38.387Z,46.22
2022-09-26T04:03:42.373Z,56.42
2022-09-26T04:06:29.379Z,41.40
2022-09-26T04:14:55.635Z,44.70
2022-09-26T04:17:48.539Z,45.10
2022-09-26T04:20:47.598Z,56.08
2022-09-26T04:23:28.734Z,54.05
2022-09-26T04:26:26.323Z,58.08
2022-09-26T04:29:19.155Z,72.65
2022-09-26T04:32:09.414Z,76.15
2022-09-26T04:34:58.403Z,71.55
2022-09-26T04:38:03.065Z,53.80
2022-09-26T04:43:35.019Z,42.08
2022-09-26T04:49:42.019Z,46.33
2022-09-26T04:55:35.662Z,44.83
2022-09-26T04:58:16.229Z,41.07
2022-09-26T05:06:40.605Z,42.25
2022-09-26T05:09:22.069Z,38.83
2022-09-26T05:11:51.312Z,41.80
2022-09-26T05:14:20.595Z,39.85
2022-09-26T05:16:51.193Z,38.38
2022-09-26T05:19:23.277Z,42.00
2022-09-26T05:21:51.097Z,42.40
2022-09-26T05:24:45.342Z,42.83
2022-09-26T05:27:23.894Z,50.75
2022-09-26T05:29:52.232Z,41.95
2022-09-26T05:32:31.838Z,39.78
2022-09-26T05:39:23.567Z,37.40
2022-09-26T05:41:49.653Z,42.50
2022-09-26T05:45:03.143Z,40.70
2022-09-26T05:47:40.479Z,42.80
2022-09-26T05:50:34.414Z,43.05
2022-09-26T05:56:28.692Z,42.88
2022-09-26T05:59:49.813Z,42.13
2022-09-26T06:02:59.294Z,45.45
2022-09-26T06:05:36.783Z,44.10
2022-09-26T06:16:50.886Z,35.63
2022-09-26T06:19:23.332Z,41.15
2022-09-26T06:21:50.696Z,37.78
2022-09-26T06:24:21.614Z,41.80
2022-09-26T06:26:51.826Z,41.78
2022-09-26T06:29:22.138Z,39.05
2022-09-26T06:31:51.684Z,34.60
2022-09-26T06:34:21.980Z,37.13
2022-09-26T06:36:58.597Z,36.03
2022-09-26T06:39:35.906Z,35.40
2022-09-26T06:42:31.039Z,34.25
2022-09-26T06:45:12.582Z,38.00
2022-09-26T06:47:48.352Z,41.58
2022-09-26T06:50:38.540Z,41.72
2022-09-26T06:56:31.186Z,43.10
2022-09-26T07:02:09.810Z,39.97
2022-09-26T07:04:58.057Z,41.95
2022-09-26T07:07:54.679Z,42.88
2022-09-26T07:10:41.199Z,41.70
2022-09-26T07:13:25.854Z,42.53
2022-09-26T07:16:16.860Z,39.22
2022-09-26T07:18:57.487Z,40.38
2022-09-26T07:21:39.992Z,40.83
2022-09-26T07:24:46.164Z,38.70
2022-09-26T07:27:18.571Z,40.72
2022-09-26T07:29:50.712Z,40.55
2022-09-26T07:32:17.352Z,42.55
2022-09-26T07:34:44.026Z,40.08
2022-09-26T07:37:10.822Z,39.65
2022-09-26T07:39:37.561Z,42.55
2022-09-26T07:42:04.657Z,46.17
2022-09-26T07:47:37.547Z,42.47
2022-09-26T07:50:16.121Z,38.40
2022-09-26T07:52:46.691Z,40.85
2022-09-26T07:55:20.492Z,44.30
2022-09-26T07:57:50.133Z,41.60
2022-09-26T08:00:19.642Z,36.95
2022-09-26T08:02:46.817Z,39.77
2022-09-26T08:05:19.788Z,40.28
2022-09-26T08:07:48.129Z,39.05
2022-09-26T08:10:21.384Z,40.13
2022-09-26T08:12:48.372Z,41.42
2022-09-26T08:15:15.501Z,41.03
2022-09-26T08:17:43.333Z,40.33
2022-09-26T08:20:11.030Z,39.72
2022-09-26T08:22:37.724Z,38.95
2022-09-26T08:25:06.839Z,42.70
2022-09-26T08:27:34.733Z,39.83
2022-09-26T08:30:03.236Z,39.17
2022-09-26T08:32:32.224Z,42.38
2022-09-26T08:35:00.456Z,40.28
2022-09-26T08:37:28.207Z,38.47
2022-09-26T08:39:54.879Z,39.28
2022-09-26T08:43:04.377Z,40.28
2022-09-26T08:46:12.990Z,41.00
2022-09-26T08:48:58.254Z,41.67
2022-09-26T08:51:39.260Z,38.45
2022-09-26T08:54:14.501Z,42.65
2022-09-26T08:56:46.813Z,34.53
2022-09-26T08:59:29.911Z,34.55
2022-09-26T09:02:01.242Z,33.05
2022-09-26T09:04:44.052Z,32.60
2022-09-26T09:07:24.409Z,34.78
2022-09-26T09:09:55.291Z,32.33
2022-09-26T09:12:33.987Z,30.75
2022-09-26T09:15:26.334Z,35.17
2022-09-26T09:18:15.051Z,36.08
2022-09-26T09:20:56.969Z,32.65
2022-09-26T09:23:37.524Z,31.30
2022-09-26T09:29:10.499Z,29.92
2022-09-26T09:31:41.451Z,30.73
2022-09-26T09:34:27.942Z,30.05
2022-09-26T09:37:01.134Z,33.60
2022-09-26T09:39:36.914Z,30.15
2022-09-26T09:42:13.024Z,29.95
2022-09-26T09:44:47.638Z,32.58
2022-09-26T09:47:16.927Z,31.45
2022-09-26T09:49:46.139Z,32.00
2022-09-26T09:52:21.508Z,31.30
2022-09-26T09:55:21.561Z,30.13
2022-09-26T09:58:15.980Z,30.15
2022-09-26T10:00:51.762Z,29.63
2022-09-26T10:04:01.859Z,28.40
2022-09-26T10:06:45.841Z,25.92
2022-09-26T10:09:36.453Z,26.38
2022-09-26T10:12:17.229Z,25.30
2022-09-26T10:15:02.316Z,24.77
2022-09-26T10:17:29.726Z,24.65
2022-09-26T10:19:57.112Z,23.35
2022-09-26T10:22:45.006Z,25.95
2022-09-26T10:25:22.545Z,25.65
2022-09-26T10:27:57.857Z,24.35
2022-09-26T10:30:30.200Z,24.10
2022-09-26T10:33:01.767Z,21.33
2022-09-26T10:35:41.953Z,23.85
2022-09-26T10:40:55.434Z,24.63
2022-09-26T10:43:33.228Z,21.45
2022-09-26T10:46:06.710Z,23.58
2022-09-26T10:48:48.936Z,21.65
2022-09-26T10:51:24.697Z,20.83
2022-09-26T10:54:02.860Z,22.00
2022-09-26T10:56:33.110Z,19.45
2022-09-26T11:01:31.633Z,20.90
2022-09-26T11:04:15.361Z,18.35
2022-09-26T11:06:44.207Z,18.10
2022-09-26T11:09:22.466Z,19.00
2022-09-26T11:11:53.308Z,20.00
2022-09-26T11:14:32.715Z,18.42
2022-09-26T11:17:00.639Z,19.42
2022-09-26T11:19:44.968Z,21.60
2022-09-26T11:22:30.534Z,20.08
2022-09-26T11:25:28.577Z,19.90
2022-09-26T11:28:10.465Z,18.80
2022-09-26T11:30:47.933Z,21.10
2022-09-26T11:33:18.816Z,21.33
2022-09-26T11:36:03.533Z,16.50
2022-09-26T11:38:47.129Z,16.92
2022-09-26T11:41:39.411Z,18.00
2022-09-26T11:44:37.061Z,16.02
2022-09-26T11:47:06.814Z,19.45
2022-09-26T11:49:59.125Z,19.83
2022-09-26T11:52:34.874Z,19.83
2022-09-26T11:55:39.261Z,17.67
2022-09-26T11:58:51.539Z,16.42
2022-09-26T12:01:31.383Z,18.88
2022-09-26T12:04:24.319Z,15.63
2022-09-26T12:07:16.330Z,20.75
2022-09-26T12:09:54.943Z,18.13
2022-09-26T12:12:34.910Z,17.33
2022-09-26T12:15:27.249Z,18.77
2022-09-26T12:18:19.027Z,22.63
2022-09-26T12:21:15.199Z,20.77
2022-09-26T12:24:14.421Z,19.70
2022-09-26T12:27:00.686Z,17.10
2022-09-26T12:29:59.192Z,22.33
2022-09-26T12:33:06.856Z,20.60
2022-09-26T12:36:10.203Z,20.13
2022-09-26T12:38:50.101Z,19.60
2022-09-26T12:41:46.411Z,21.83
2022-09-26T12:44:41.871Z,20.48
2022-09-26T12:47:38.543Z,21.48
2022-09-26T12:50:30.919Z,22.77
2022-09-26T12:53:19.338Z,20.75
2022-09-26T12:56:08.361Z,20.95
2022-09-26T12:58:46.977Z,19.83
2022-09-26T13:01:50.332Z,21.13
2022-09-26T13:04:44.455Z,21.23
2022-09-26T13:07:49.405Z,21.13
2022-09-26T13:10:51.204Z,25.00
2022-09-26T13:13:26.956Z,20.90
2022-09-26T13:16:30.350Z,18.95
2022-09-26T13:19:16.408Z,20.80
2022-09-26T13:22:06.983Z,23.02
2022-09-26T13:25:01.526Z,20.55
2022-09-26T13:27:36.287Z,24.63
2022-09-26T13:30:24.296Z,25.10
2022-09-26T13:33:03.748Z,24.65
2022-09-26T13:35:36.533Z,20.13
2022-09-26T13:38:17.935Z,20.58
2022-09-26T13:40:56.510Z,23.02
2022-09-26T13:43:47.467Z,23.45
2022-09-26T13:46:42.244Z,26.15
2022-09-26T13:49:33.884Z,24.77
2022-09-26T13:52:19.117Z,21.75
2022-09-26T13:54:54.911Z,26.38
2022-09-26T13:58:07.066Z,21.27
2022-09-26T14:00:40.924Z,21.73
2022-09-26T14:03:13.262Z,23.20
2022-09-26T14:05:49.266Z,24.83
2022-09-26T14:08:54.830Z,26.30
2022-09-26T14:11:45.853Z,23.10
2022-09-26T14:14:18.588Z,23.98
2022-09-26T14:17:00.757Z,25.65
2022-09-26T14:19:42.457Z,24.33
2022-09-26T14:22:23.597Z,22.25
2022-09-26T14:24:54.327Z,25.13
2022-09-26T14:27:20.973Z,24.25
2022-09-26T14:29:51.157Z,23.13
2022-09-26T14:32:21.556Z,21.95
2022-09-26T14:34:56.912Z,24.73
2022-09-26T14:37:26.522Z,24.55
2022-09-26T14:40:21.043Z,27.38
2022-09-26T14:43:03.717Z,22.90
2022-09-26T14:45:33.327Z,23.13
2022-09-26T14:48:02.842Z,23.45
2022-09-26T14:50:35.294Z,22.77
2022-09-26T14:53:13.142Z,27.77
2022-09-26T14:55:54.636Z,26.30
2022-09-26T14:58:50.780Z,25.35
2022-09-26T15:01:38.805Z,27.10
2022-09-26T15:04:23.975Z,27.13
2022-09-26T15:07:01.576Z,26.58
2022-09-26T15:09:41.996Z,27.67
2022-09-26T15:12:15.437Z,26.80
2022-09-26T15:14:52.585Z,30.77
2022-09-26T15:17:27.652Z,25.92
2022-09-26T15:19:57.508Z,28.27
2022-09-26T15:22:27.023Z,28.65
2022-09-26T15:24:55.241Z,26.40
2022-09-26T15:27:29.780Z,25.30
2022-09-26T15:30:13.411Z,26.42
2022-09-26T15:32:40.194Z,25.17
2022-09-26T15:35:12.547Z,24.42
2022-09-26T15:37:39.533Z,25.92
2022-09-26T15:40:25.760Z,29.02
2022-09-26T15:43:20.736Z,27.13
2022-09-26T15:45:47.720Z,27.17
2022-09-26T15:48:20.295Z,26.70
2022-09-26T15:50:48.674Z,27.55
2022-09-26T15:53:46.128Z,29.25
2022-09-26T15:56:21.245Z,27.67
2022-09-26T15:58:53.516Z,29.77
2022-09-26T16:01:22.620Z,25.77
2022-09-26T16:04:02.821Z,29.23
2022-09-26T16:06:38.107Z,29.17
2022-09-26T16:09:14.366Z,34.38
2022-09-26T16:11:48.435Z,37.20
2022-09-26T16:14:23.227Z,31.00
2022-09-26T16:16:49.972Z,28.48
2022-09-26T16:19:29.623Z,31.98
2022-09-26T16:21:56.843Z,34.42
2022-09-26T16:24:39.084Z,30.38
2022-09-26T16:27:38.339Z,34.63
2022-09-26T16:30:28.905Z,122.85
2022-09-26T16:33:08.017Z,98.78
2022-09-26T16:35:37.234Z,65.05
2022-09-26T16:38:36.853Z,50.03
2022-09-26T16:41:31.368Z,43.72
2022-09-26T16:44:17.158Z,34.92
2022-09-26T16:47:27.923Z,30.80
2022-09-26T16:49:56.347Z,35.28
2022-09-26T16:52:32.057Z,44.25
2022-09-26T16:55:01.420Z,65.40
2022-09-26T16:57:34.556Z,85.80
2022-09-26T17:00:33.375Z,84.28
2022-09-26T17:03:02.392Z,86.85
2022-09-26T17:05:31.957Z,96.00
2022-09-26T17:07:59.560Z,91.40
2022-09-26T17:10:26.605Z,80.70
2022-09-26T17:12:53.695Z,68.82
2022-09-26T17:15:30.130Z,57.80
2022-09-26T17:18:02.377Z,59.15
2022-09-26T17:20:29.231Z,65.88
2022-09-26T17:22:55.896Z,56.45
2022-09-26T17:25:25.343Z,60.10
2022-09-26T17:28:06.181Z,69.17
2022-09-26T17:32:15.297Z,64.47
2022-09-26T17:33:32.579Z,60.35
2022-09-26T17:36:03.251Z,54.45
2022-09-26T17:38:33.620Z,54.40
2022-09-26T17:41:05.781Z,45.75
2022-09-26T17:43:37.121Z,48.25
2022-09-26T17:46:16.955Z,44.85
2022-09-26T17:48:45.983Z,45.97
2022-09-26T17:51:37.042Z,45.50
2022-09-26T17:54:09.488Z,56.28
2022-09-26T17:59:23.315Z,59.50
2022-09-26T18:02:23.380Z,65.55
2022-09-26T18:05:00.386Z,82.07
2022-09-26T18:07:38.080Z,74.80
2022-09-26T18:10:07.753Z,72.20
2022-09-26T18:12:35.115Z,69.68
2022-09-26T18:15:09.568Z,70.68
2022-09-26T18:17:36.718Z,64.25
2022-09-26T18:20:09.299Z,61.30
2022-09-26T18:22:36.216Z,61.75
2022-09-26T18:25:07.208Z,57.95
2022-09-26T18:27:43.848Z,55.03
2022-09-26T18:30:15.305Z,55.45
2022-09-26T18:32:46.187Z,47.63
2022-09-26T18:35:17.852Z,43.78
2022-09-26T18:37:48.478Z,47.25
2022-09-26T18:40:17.114Z,57.63
2022-09-26T18:42:44.944Z,58.75
2022-09-26T18:45:20.014Z,65.75
2022-09-26T18:47:56.201Z,57.13
2022-09-26T18:50:42.022Z,55.00
2022-09-26T18:53:32.002Z,60.90
2022-09-26T18:56:21.243Z,62.75
2022-09-26T18:58:51.651Z,64.07
2022-09-26T19:04:20.138Z,59.20
2022-09-26T19:06:53.073Z,63.55
2022-09-26T19:09:25.324Z,64.30
2022-09-26T19:15:20.840Z,69.43
2022-09-26T19:18:00.596Z,72.28
2022-09-26T19:21:54.951Z,75.15
2022-09-26T19:28:39.531Z,76.75
2022-09-26T19:39:12.733Z,115.53
2022-09-26T19:41:49.477Z,122.03
2022-09-26T19:44:16.522Z,135.25
2022-09-26T19:46:54.727Z,134.68
2022-09-26T19:49:54.417Z,141.60
2022-09-26T19:52:30.766Z,124.53
2022-09-26T19:55:00.955Z,121.43
2022-09-26T19:57:27.998Z,106.88
2022-09-26T19:59:57.293Z,109.45
2022-09-26T20:02:54.113Z,115.85
2022-09-26T20:16:06.307Z,99.25
2022-09-26T20:18:35.781Z,93.55
2022-09-26T20:26:00.750Z,91.00
2022-09-26T20:40:04.679Z,86.32
2022-09-26T20:42:55.795Z,77.88
2022-09-26T20:46:26.734Z,89.53
2022-09-26T20:49:20.999Z,81.72
2022-09-26T20:52:18.830Z,83.88
2022-09-26T20:55:25.472Z,82.22
2022-09-26T20:58:27.770Z,92.03
2022-09-26T21:01:44.407Z,83.90
2022-09-26T21:05:25.918Z,90.97
2022-09-26T21:08:02.372Z,82.97
2022-09-26T21:18:22.363Z,84.82
2022-09-26T21:21:57.266Z,82.35
2022-09-26T21:25:06.659Z,84.05
2022-09-26T21:28:17.951Z,77.13
2022-09-26T21:31:23.619Z,82.45
2022-09-26T21:34:48.387Z,82.68
2022-09-26T21:37:26.726Z,83.65
2022-09-26T21:40:21.943Z,73.45
2022-09-26T21:43:15.708Z,81.63
2022-09-26T21:46:05.750Z,76.35
2022-09-26T21:49:55.552Z,73.00
2022-09-26T21:56:20.294Z,70.15
2022-09-26T21:59:09.811Z,63.55
2022-09-26T22:02:24.234Z,53.57
2022-09-26T22:25:50.079Z,51.45
2022-09-26T22:31:14.764Z,51.85
2022-09-26T22:34:02.885Z,52.72
2022-09-26T22:36:58.990Z,55.80
2022-09-26T22:43:34.411Z,50.08
2022-09-26T22:50:06.472Z,57.17
2022-09-26T22:59:40.242Z,60.58
2022-09-26T23:16:28.825Z,51.08
2022-09-26T23:18:56.272Z,54.08
2022-09-26T23:21:43.977Z,53.42
2022-09-26T23:24:13.014Z,52.92
2022-09-26T23:26:39.864Z,61.67
2022-09-26T23:29:06.642Z,59.25
2022-09-26T23:31:33.317Z,62.97
2022-09-26T23:34:04.595Z,62.20
2022-09-26T23:36:36.104Z,58.95
2022-09-26T23:39:02.891Z,56.78
2022-09-26T23:41:33.494Z,53.22
2022-09-26T23:44:00.545Z,53.47
2022-09-26T23:46:27.749Z,53.70
2022-09-26T23:48:54.522Z,49.33
2022-09-26T23:51:21.520Z,47.15
2022-09-26T23:53:53.023Z,54.28
2022-09-26T23:56:33.717Z,47.35
2022-09-26T23:59:20.686Z,49.92
